Time;durP1;ratioP1;P1;durP2;ratioP2;P2;SDS_P1;SDS_P2;PMS_P1;PMS_P2;Temp;Humidity;BMP_temperature;BMP_pressure;BME280_temperature;BME280_humidity;BME280_pressure;Samples;Min_cycle;Max_cycle;Signal;HPM_P1;HPM_P2
2021/09/16 00:01:15;;;;;;;11.53;10.45;;;;;;;22.15;47.49;94669.75;827207;71;32808;-76
2021/09/16 00:31:09;;;;;;;10.53;9.63;;;;;;;21.94;47.74;94689.66;824001;71;31067;-77
2021/09/16 00:46:14;;;;;;;10.13;9.23;;;;;;;21.89;47.73;94685.92;833838;71;32727;-75
2021/09/16 01:01:16;;;;;;;10.48;9.48;;;;;;;21.83;47.58;94676.66;827346;71;32770;-76
2021/09/16 01:16:09;;;;;;;9.83;8.93;;;;;;;21.84;47.45;94672.87;835051;71;30352;-79
2021/09/16 01:31:39;;;;;;;9.90;9.10;;;;;;;21.72;47.62;94667.13;810613;72;33883;-76
2021/09/16 01:46:08;;;;;;;9.90;8.90;;;;;;;21.52;47.62;94665.03;829569;71;29656;-77
2021/09/16 02:01:10;;;;;;;9.50;8.60;;;;;;;21.54;47.61;94662.02;828274;71;31396;-77
2021/09/16 02:31:09;;;;;;;10.18;9.28;;;;;;;21.31;47.67;94628.55;834091;71;29836;-78
2021/09/16 03:31:33;;;;;;;14.30;12.68;;;;;;;18.18;55.58;94663.80;809461;72;32762;-76
2021/09/16 03:46:47;;;;;;;13.18;11.88;;;;;;;17.52;57.40;94683.24;828127;71;26999;-79
2021/09/16 04:46:24;;;;;;;16.12;14.47;;;;;;;17.30;60.65;94702.94;833948;71;32757;-79
2021/09/16 11:16:17;;;;;;;13.13;11.30;;;;;;;29.39;31.43;94560.60;835621;71;30841;-79
2021/09/16 11:31:19;;;;;;;12.57;11.30;;;;;;;29.73;31.33;94544.29;834574;71;30026;-80
2021/09/16 11:46:11;;;;;;;9.90;9.10;;;;;;;29.79;29.92;94521.60;828348;71;28709;-78
2021/09/16 12:01:17;;;;;;;10.30;9.30;;;;;;;30.44;28.38;94507.73;827543;71;31535;-78
2021/09/16 12:16:20;;;;;;;8.80;8.00;;;;;;;30.93;27.18;94485.50;828803;71;30885;-78
2021/09/16 12:31:09;;;;;;;9.10;8.40;;;;;;;30.81;26.44;94468.51;828669;71;28230;-79
2021/09/16 12:46:19;;;;;;;10.13;9.20;;;;;;;30.77;26.92;94465.11;827712;71;30754;-79
2021/09/16 13:01:08;;;;;;;10.63;9.73;;;;;;;30.60;26.30;94450.16;834294;71;27636;-78
2021/09/16 13:16:09;;;;;;;11.47;9.50;;;;;;;29.97;26.64;94444.19;828420;71;27708;-78
2021/09/16 13:31:14;;;;;;;10.00;9.20;;;;;;;29.60;27.20;94439.76;833955;71;30788;-79
2021/09/16 13:46:08;;;;;;;10.67;9.67;;;;;;;29.40;27.75;94422.12;834228;71;27663;-78
2021/09/16 14:01:14;;;;;;;10.27;9.27;;;;;;;29.12;27.95;94422.75;828356;71;27781;-79
2021/09/16 14:16:18;;;;;;;10.00;9.20;;;;;;;28.93;28.20;94415.47;827703;71;30847;-78
2021/09/16 14:31:08;;;;;;;10.00;9.10;;;;;;;28.73;28.46;94420.76;828444;71;27707;-77
2021/09/16 14:46:11;;;;;;;9.40;8.50;;;;;;;28.35;29.30;94416.77;828970;71;28284;-77
2021/09/16 15:16:14;;;;;;;10.73;9.80;;;;;;;27.84;33.23;94421.72;827367;71;32777;-75
2021/09/16 15:31:53;;;;;;;10.67;9.77;;;;;;;27.64;34.27;94431.75;833820;71;27419;-76
2021/09/16 17:01:12;;;;;;;245.20;125.33;;;;;;;26.25;41.88;94508.64;828249;71;32112;-75
2021/09/16 17:31:08;;;;;;;63.13;45.80;;;;;;;26.08;39.48;94551.91;834725;71;29702;-78
2021/09/16 17:46:59;;;;;;;21.00;18.80;;;;;;;25.99;38.53;94549.59;774879;74;33086;-76
2021/09/16 18:01:08;;;;;;;18.27;15.73;;;;;;;25.85;39.53;94553.05;828729;71;29673;-77
2021/09/16 18:31:09;;;;;;;22.40;19.73;;;;;;;25.77;40.99;94567.61;828157;71;31155;-77
2021/09/16 18:46:59;;;;;;;18.13;16.23;;;;;;;25.55;40.92;94558.20;799026;73;34091;-76
2021/09/16 19:01:14;;;;;;;23.87;18.47;;;;;;;25.35;40.98;94553.76;827493;71;33297;-77
2021/09/16 19:16:09;;;;;;;14.37;12.90;;;;;;;25.23;41.65;94556.80;828317;71;30981;-76
2021/09/16 19:31:15;;;;;;;17.30;15.50;;;;;;;25.41;42.69;94550.71;833988;71;33285;-76
2021/09/16 19:46:09;;;;;;;17.07;14.50;;;;;;;25.38;41.82;94542.81;828538;71;30202;-75
2021/09/16 20:46:14;;;;;;;23.30;14.67;;;;;;;25.17;41.06;94509.95;827446;71;33154;-76
2021/09/16 21:16:14;;;;;;;16.70;15.00;;;;;;;25.05;41.83;94512.41;827678;71;32703;-78
2021/09/16 21:31:59;;;;;;;13.97;12.67;;;;;;;24.47;42.45;94512.73;756422;72;33384;-76
2021/09/16 21:46:08;;;;;;;12.80;11.63;;;;;;;24.53;42.81;94516.66;828201;71;29740;-78
2021/09/16 22:16:08;;;;;;;13.47;12.17;;;;;;;24.62;42.48;94503.47;834021;71;30232;-78
2021/09/16 23:16:09;;;;;;;14.60;13.30;;;;;;;24.58;44.03;94505.55;828083;71;29351;-77
2021/09/16 23:31:08;;;;;;;15.00;13.20;;;;;;;24.61;44.40;94516.09;828431;71;29514;-79
2021/09/16 23:46:14;;;;;;;13.33;12.10;;;;;;;24.61;44.82;94511.30;827622;71;31818;-79
